createdAt,value
2019-01-11T00:00:58.690Z,1022.11
2019-01-11T00:02:07.613Z,1022.17
2019-01-11T00:03:16.530Z,1022.1
2019-01-11T00:04:25.476Z,1022.16
2019-01-11T00:05:34.894Z,1022.12
2019-01-11T00:06:44.064Z,1022.1
2019-01-11T00:07:53.496Z,1022.06
2019-01-11T00:09:03.192Z,1022.08
2019-01-11T00:10:12.379Z,1022.08
2019-01-11T00:11:22.048Z,1022.13
2019-01-11T00:12:30.966Z,1022.13
2019-01-11T00:13:40.394Z,1022.12
2019-01-11T00:14:49.319Z,1022.12
2019-01-11T00:15:58.504Z,1022.07
2019-01-11T00:17:07.919Z,1022.05
2019-01-11T00:18:17.336Z,1021.99
2019-01-11T00:19:26.278Z,1022.02
2019-01-11T00:20:36.008Z,1021.99
2019-01-11T00:21:44.978Z,1022.01
2019-01-11T00:22:54.143Z,1021.98
2019-01-11T00:24:03.318Z,1022.02
2019-01-11T00:25:12.743Z,1022
2019-01-11T00:26:22.175Z,1022.01
2019-01-11T00:27:31.601Z,1021.98
2019-01-11T00:28:41.027Z,1021.95
2019-01-11T00:29:51.581Z,1021.97
2019-01-11T00:31:00.501Z,1022.01
2019-01-11T00:32:09.674Z,1021.97
2019-01-11T00:33:18.850Z,1021.97
2019-01-11T00:34:28.791Z,1021.97
2019-01-11T00:35:38.011Z,1021.99
2019-01-11T00:36:47.445Z,1022
2019-01-11T00:37:56.874Z,1021.97
2019-01-11T00:39:05.810Z,1022
2019-01-11T00:40:15.236Z,1021.98
2019-01-11T00:41:24.414Z,1022
2019-01-11T00:42:33.890Z,1021.96
2019-01-11T00:43:43.063Z,1021.97
2019-01-11T00:44:52.234Z,1021.94
2019-01-11T00:46:01.150Z,1021.96
2019-01-11T00:47:10.335Z,1021.93
2019-01-11T00:48:20.046Z,1021.9
2019-01-11T00:49:29.537Z,1021.91
2019-01-11T00:50:38.707Z,1021.85
2019-01-11T00:51:47.629Z,1021.86
2019-01-11T00:52:56.559Z,1021.83
2019-01-11T00:54:05.478Z,1021.81
2019-01-11T00:55:15.161Z,1021.79
2019-01-11T00:56:24.825Z,1021.82
2019-01-11T00:57:34.002Z,1021.8
2019-01-11T00:58:42.983Z,1021.81
2019-01-11T00:59:52.163Z,1021.81
2019-01-11T01:01:01.338Z,1021.81
2019-01-11T01:02:10.788Z,1021.83
2019-01-11T01:03:19.954Z,1021.82
2019-01-11T01:04:29.609Z,1021.84
2019-01-11T01:05:39.049Z,1021.83
2019-01-11T01:06:48.731Z,1021.8
2019-01-11T01:07:57.894Z,1021.85
2019-01-11T01:09:07.071Z,1021.82
2019-01-11T01:10:16.261Z,1021.79
2019-01-11T01:11:25.162Z,1021.82
2019-01-11T01:12:34.885Z,1021.83
2019-01-11T01:13:44.546Z,1021.82
2019-01-11T01:14:53.969Z,1021.79
2019-01-11T01:16:03.158Z,1021.77
2019-01-11T01:17:12.352Z,1021.75
2019-01-11T01:18:21.312Z,1021.74
2019-01-11T01:19:30.236Z,1021.75
2019-01-11T01:20:40.167Z,1021.73
2019-01-11T01:21:49.097Z,1021.69
2019-01-11T01:22:58.811Z,1021.66
2019-01-11T01:24:07.501Z,1021.69
2019-01-11T01:25:16.902Z,1021.73
2019-01-11T01:26:25.820Z,1021.68
2019-01-11T01:27:34.738Z,1021.67
2019-01-11T01:28:43.910Z,1021.68
2019-01-11T01:29:53.354Z,1021.7
2019-01-11T01:31:02.297Z,1021.68
2019-01-11T01:32:11.722Z,1021.66
2019-01-11T01:33:21.158Z,1021.69
2019-01-11T01:34:30.857Z,1021.68
2019-01-11T01:35:40.035Z,1021.72
2019-01-11T01:36:49.220Z,1021.71
2019-01-11T01:37:58.917Z,1021.75
2019-01-11T01:39:08.092Z,1021.74
2019-01-11T01:40:17.522Z,1021.74
2019-01-11T01:41:26.953Z,1021.74
2019-01-11T01:42:36.124Z,1021.76
2019-01-11T01:43:45.799Z,1021.72
2019-01-11T01:44:54.977Z,1021.74
2019-01-11T01:46:04.186Z,1021.73
2019-01-11T01:47:13.366Z,1021.71
2019-01-11T01:48:22.298Z,1021.69
2019-01-11T01:49:31.759Z,1021.66
2019-01-11T01:50:40.949Z,1021.61
2019-01-11T01:51:50.393Z,1021.63
2019-01-11T01:53:00.067Z,1021.62
2019-01-11T01:54:09.533Z,1021.56
2019-01-11T01:55:18.702Z,1021.62
2019-01-11T01:56:27.654Z,1021.6
2019-01-11T01:57:36.834Z,1021.63
2019-01-11T01:58:46.018Z,1021.58
2019-01-11T01:59:55.204Z,1021.59
2019-01-11T02:01:04.383Z,1021.63
2019-01-11T02:02:13.566Z,1021.57
2019-01-11T02:03:22.740Z,1021.53
2019-01-11T02:04:31.909Z,1021.55
2019-01-11T02:05:41.091Z,1021.56
2019-01-11T02:06:50.508Z,1021.61
2019-01-11T02:07:59.988Z,1021.6
2019-01-11T02:09:09.171Z,1021.57
2019-01-11T02:10:18.349Z,1021.59
2019-01-11T02:11:27.782Z,1021.56
2019-01-11T02:12:36.701Z,1021.54
2019-01-11T02:13:46.147Z,1021.55
2019-01-11T02:14:55.068Z,1021.53
2019-01-11T02:16:04.493Z,1021.55
2019-01-11T02:17:13.669Z,1021.48
2019-01-11T02:18:23.106Z,1021.54
2019-01-11T02:19:33.196Z,1021.49
2019-01-11T02:20:42.736Z,1021.51
2019-01-11T02:21:52.152Z,1021.49
2019-01-11T02:23:01.078Z,1021.47
2019-01-11T02:24:09.745Z,1021.42
2019-01-11T02:25:19.175Z,1021.4
2019-01-11T02:26:28.591Z,1021.39
2019-01-11T02:27:37.801Z,1021.38
2019-01-11T02:28:46.739Z,1021.36
2019-01-11T02:29:56.159Z,1021.33
2019-01-11T02:31:05.886Z,1021.35
2019-01-11T02:32:15.590Z,1021.34
2019-01-11T02:33:25.286Z,1021.3
2019-01-11T02:34:34.470Z,1021.3
2019-01-11T02:35:43.409Z,1021.28
2019-01-11T02:36:52.837Z,1021.26
2019-01-11T02:38:02.976Z,1021.23
2019-01-11T02:39:12.436Z,1021.26
2019-01-11T02:40:21.860Z,1021.24
2019-01-11T02:41:31.542Z,1021.22
2019-01-11T02:42:40.975Z,1021.22
2019-01-11T02:43:50.912Z,1021.21
2019-01-11T02:45:00.158Z,1021.24
2019-01-11T02:46:09.837Z,1021.18
2019-01-11T02:47:18.772Z,1021.19
2019-01-11T02:48:27.703Z,1021.11
2019-01-11T02:49:40.140Z,1021.13
2019-01-11T02:50:50.116Z,1021.11
2019-01-11T02:51:59.802Z,1021.1
2019-01-11T02:53:09.742Z,1021.11
2019-01-11T02:54:18.657Z,1021.06
2019-01-11T02:55:27.823Z,1021.07
2019-01-11T02:56:37.496Z,1021.06
2019-01-11T02:57:46.667Z,1021.04
2019-01-11T02:58:56.098Z,1021.01
2019-01-11T03:00:05.571Z,1020.99
2019-01-11T03:01:15.497Z,1021.01
2019-01-11T03:02:24.429Z,1020.98
2019-01-11T03:03:33.859Z,1020.97
2019-01-11T03:04:43.801Z,1020.99
2019-01-11T03:05:52.987Z,1020.94
2019-01-11T03:07:02.427Z,1020.92
2019-01-11T03:08:11.618Z,1020.93
2019-01-11T03:09:20.810Z,1020.95
2019-01-11T03:10:30.043Z,1020.89
2019-01-11T03:11:39.471Z,1020.93
2019-01-11T03:12:49.139Z,1020.9
2019-01-11T03:13:58.063Z,1020.91
2019-01-11T03:15:07.508Z,1020.93
2019-01-11T03:16:17.198Z,1020.88
2019-01-11T03:17:26.133Z,1020.9
2019-01-11T03:18:35.066Z,1020.89
2019-01-11T03:19:47.811Z,1020.87
2019-01-11T03:20:57.426Z,1020.84
2019-01-11T03:22:06.876Z,1020.86
2019-01-11T03:23:16.312Z,1020.84
2019-01-11T03:24:25.526Z,1020.84
2019-01-11T03:25:34.954Z,1020.88
2019-01-11T03:26:44.628Z,1020.86
2019-01-11T03:27:54.057Z,1020.86
2019-01-11T03:29:03.227Z,1020.79
2019-01-11T03:30:12.419Z,1020.79
2019-01-11T03:31:22.137Z,1020.76
2019-01-11T03:32:32.100Z,1020.75
2019-01-11T03:33:42.134Z,1020.72
2019-01-11T03:34:51.313Z,1020.72
2019-01-11T03:36:00.743Z,1020.71
2019-01-11T03:37:10.174Z,1020.72
2019-01-11T03:38:19.379Z,1020.69
2019-01-11T03:39:28.588Z,1020.66
2019-01-11T03:40:38.297Z,1020.67
2019-01-11T03:41:47.741Z,1020.65
2019-01-11T03:42:57.433Z,1020.61
2019-01-11T03:44:06.865Z,1020.59
2019-01-11T03:45:16.585Z,1020.54
2019-01-11T03:46:25.790Z,1020.58
2019-01-11T03:47:35.231Z,1020.52
2019-01-11T03:48:44.920Z,1020.54
2019-01-11T03:49:54.867Z,1020.56
2019-01-11T03:51:04.797Z,1020.53
2019-01-11T03:52:14.463Z,1020.52
2019-01-11T03:53:23.789Z,1020.48
2019-01-11T03:54:32.968Z,1020.47
2019-01-11T03:55:42.397Z,1020.48
2019-01-11T03:56:51.319Z,1020.46
2019-01-11T03:58:00.516Z,1020.45
2019-01-11T03:59:09.963Z,1020.46
2019-01-11T04:00:19.396Z,1020.39
2019-01-11T04:01:28.881Z,1020.42
2019-01-11T04:02:38.586Z,1020.45
2019-01-11T04:03:48.279Z,1020.42
2019-01-11T04:04:57.197Z,1020.41
2019-01-11T04:06:06.880Z,1020.45
2019-01-11T04:07:16.056Z,1020.4
2019-01-11T04:08:25.743Z,1020.4
2019-01-11T04:09:35.232Z,1020.39
2019-01-11T04:10:44.920Z,1020.39
2019-01-11T04:11:54.642Z,1020.31
2019-01-11T04:13:03.567Z,1020.32
2019-01-11T04:14:12.573Z,1020.32
2019-01-11T04:15:21.754Z,1020.28
2019-01-11T04:16:31.448Z,1020.31
2019-01-11T04:17:40.624Z,1020.3
2019-01-11T04:18:50.282Z,1020.26
2019-01-11T04:20:02.036Z,1020.26
2019-01-11T04:21:11.592Z,1020.27
2019-01-11T04:22:20.759Z,1020.27
2019-01-11T04:23:30.193Z,1020.24
2019-01-11T04:24:40.123Z,1020.22
2019-01-11T04:25:49.801Z,1020.26
2019-01-11T04:26:59.483Z,1020.21
2019-01-11T04:28:08.906Z,1020.22
2019-01-11T04:29:18.856Z,1020.23
2019-01-11T04:30:28.298Z,1020.24
2019-01-11T04:31:37.751Z,1020.2
2019-01-11T04:32:47.428Z,1020.18
2019-01-11T04:33:57.367Z,1020.16
2019-01-11T04:35:06.782Z,1020.19
2019-01-11T04:36:16.529Z,1020.18
2019-01-11T04:37:25.971Z,1020.2
2019-01-11T04:38:35.205Z,1020.15
2019-01-11T04:39:44.411Z,1020.17
2019-01-11T04:40:53.854Z,1020.13
2019-01-11T04:42:03.081Z,1020.1
2019-01-11T04:43:12.512Z,1020.11
2019-01-11T04:44:21.942Z,1020.08
2019-01-11T04:45:31.380Z,1020.12
2019-01-11T04:46:40.814Z,1020.1
2019-01-11T04:47:50.509Z,1020.1
2019-01-11T04:49:00.196Z,1020.03
2019-01-11T04:50:09.921Z,1020.05
2019-01-11T04:51:19.691Z,1020
2019-01-11T04:52:29.401Z,1020.01
2019-01-11T04:53:38.354Z,1020.04
2019-01-11T04:54:48.036Z,1020
2019-01-11T04:55:57.236Z,1020.05
2019-01-11T04:57:06.419Z,1020
2019-01-11T04:58:15.848Z,1019.97
2019-01-11T04:59:24.804Z,1019.99
2019-01-11T05:00:34.495Z,1019.95
2019-01-11T05:01:44.175Z,1019.96
2019-01-11T05:02:53.371Z,1019.97
2019-01-11T05:04:02.573Z,1019.96
2019-01-11T05:05:11.780Z,1019.98
2019-01-11T05:06:20.978Z,1019.96
2019-01-11T05:07:30.410Z,1019.94
2019-01-11T05:08:39.597Z,1019.92
2019-01-11T05:09:49.283Z,1019.89
2019-01-11T05:10:58.461Z,1019.87
2019-01-11T05:12:07.752Z,1019.87
2019-01-11T05:13:17.203Z,1019.86
2019-01-11T05:14:26.404Z,1019.86
2019-01-11T05:15:35.343Z,1019.84
2019-01-11T05:16:45.274Z,1019.84
2019-01-11T05:17:54.702Z,1019.83
2019-01-11T05:19:03.625Z,1019.84
2019-01-11T05:20:16.654Z,1019.85
2019-01-11T05:21:26.543Z,1019.9
2019-01-11T05:22:35.718Z,1019.87
2019-01-11T05:23:45.173Z,1019.85
2019-01-11T05:24:54.625Z,1019.86
2019-01-11T05:26:03.826Z,1019.87
2019-01-11T05:27:12.814Z,1019.87
2019-01-11T05:28:22.256Z,1019.91
2019-01-11T05:29:31.703Z,1019.87
2019-01-11T05:30:40.902Z,1019.94
2019-01-11T05:31:50.333Z,1019.91
2019-01-11T05:32:59.281Z,1019.9
2019-01-11T05:34:08.460Z,1019.84
2019-01-11T05:35:18.160Z,1019.85
2019-01-11T05:36:27.860Z,1019.84
2019-01-11T05:37:37.691Z,1019.79
2019-01-11T05:38:46.993Z,1019.82
2019-01-11T05:39:56.423Z,1019.79
2019-01-11T05:41:05.858Z,1019.8
2019-01-11T05:42:15.548Z,1019.8
2019-01-11T05:43:24.750Z,1019.81
2019-01-11T05:44:33.943Z,1019.77
2019-01-11T05:45:43.644Z,1019.78
2019-01-11T05:46:53.165Z,1019.75
2019-01-11T05:48:02.350Z,1019.73
2019-01-11T05:49:11.529Z,1019.73
2019-01-11T05:50:24.145Z,1019.74
2019-01-11T05:51:34.298Z,1019.74
2019-01-11T05:52:43.997Z,1019.77
2019-01-11T05:53:53.705Z,1019.76
2019-01-11T05:55:03.183Z,1019.75
2019-01-11T05:56:12.878Z,1019.75
2019-01-11T05:57:22.654Z,1019.76
2019-01-11T05:58:31.842Z,1019.77
2019-01-11T05:59:41.289Z,1019.77
2019-01-11T06:00:50.730Z,1019.75
2019-01-11T06:02:00.417Z,1019.75
2019-01-11T06:03:10.109Z,1019.79
2019-01-11T06:04:19.302Z,1019.81
2019-01-11T06:05:28.260Z,1019.76
2019-01-11T06:06:37.949Z,1019.77
2019-01-11T06:07:47.647Z,1019.74
2019-01-11T06:08:57.082Z,1019.75
2019-01-11T06:10:07.043Z,1019.71
2019-01-11T06:11:16.286Z,1019.71
2019-01-11T06:12:25.725Z,1019.66
2019-01-11T06:13:34.918Z,1019.69
2019-01-11T06:14:44.105Z,1019.65
2019-01-11T06:15:52.782Z,1019.62
2019-01-11T06:17:02.456Z,1019.66
2019-01-11T06:18:11.635Z,1019.69
2019-01-11T06:19:20.358Z,1019.7
2019-01-11T06:20:30.307Z,1019.72
2019-01-11T06:21:39.718Z,1019.75
2019-01-11T06:22:48.998Z,1019.73
2019-01-11T06:23:58.417Z,1019.74
2019-01-11T06:25:08.090Z,1019.74
2019-01-11T06:26:17.780Z,1019.71
2019-01-11T06:27:26.476Z,1019.68
2019-01-11T06:28:35.393Z,1019.6
2019-01-11T06:29:44.819Z,1019.63
2019-01-11T06:30:53.990Z,1019.7
2019-01-11T06:32:03.149Z,1019.71
2019-01-11T06:33:12.093Z,1019.73
2019-01-11T06:34:21.025Z,1019.76
2019-01-11T06:35:30.480Z,1019.74
2019-01-11T06:36:40.160Z,1019.69
2019-01-11T06:37:49.589Z,1019.74
2019-01-11T06:38:58.796Z,1019.68
2019-01-11T06:40:07.977Z,1019.64
2019-01-11T06:41:17.157Z,1019.66
2019-01-11T06:42:26.836Z,1019.69
2019-01-11T06:43:36.044Z,1019.67
2019-01-11T06:44:44.953Z,1019.67
2019-01-11T06:45:54.134Z,1019.71
2019-01-11T06:47:03.862Z,1019.77
2019-01-11T06:48:13.055Z,1019.81
2019-01-11T06:49:22.235Z,1019.82
2019-01-11T06:50:36.434Z,1019.79
2019-01-11T06:51:46.023Z,1019.75
2019-01-11T06:52:55.698Z,1019.78
2019-01-11T06:54:05.410Z,1019.74
2019-01-11T06:55:14.347Z,1019.73
2019-01-11T06:56:23.544Z,1019.71
2019-01-11T06:57:32.970Z,1019.75
2019-01-11T06:58:41.895Z,1019.72
2019-01-11T06:59:51.344Z,1019.74
2019-01-11T07:01:00.362Z,1019.71
2019-01-11T07:02:09.281Z,1019.71
2019-01-11T07:03:18.458Z,1019.71
2019-01-11T07:04:28.908Z,1019.74
2019-01-11T07:05:37.847Z,1019.71
2019-01-11T07:06:47.520Z,1019.75
2019-01-11T07:07:56.444Z,1019.7
2019-01-11T07:09:05.364Z,1019.74
2019-01-11T07:10:14.789Z,1019.73
2019-01-11T07:11:24.208Z,1019.71
2019-01-11T07:12:33.902Z,1019.7
2019-01-11T07:13:42.843Z,1019.73
2019-01-11T07:14:52.291Z,1019.71
2019-01-11T07:16:01.959Z,1019.74
2019-01-11T07:17:11.124Z,1019.73
2019-01-11T07:18:20.556Z,1019.79
2019-01-11T07:19:29.730Z,1019.78
2019-01-11T07:20:42.834Z,1019.78
2019-01-11T07:21:52.373Z,1019.8
2019-01-11T07:23:02.332Z,1019.78
2019-01-11T07:24:11.511Z,1019.8
2019-01-11T07:25:20.967Z,1019.8
2019-01-11T07:26:29.696Z,1019.81
2019-01-11T07:27:38.901Z,1019.78
2019-01-11T07:28:48.356Z,1019.8
2019-01-11T07:29:57.801Z,1019.79
2019-01-11T07:31:07.248Z,1019.81
2019-01-11T07:32:17.193Z,1019.81
2019-01-11T07:33:26.395Z,1019.78
2019-01-11T07:34:36.314Z,1019.79
2019-01-11T07:35:45.266Z,1019.76
2019-01-11T07:36:54.459Z,1019.78
2019-01-11T07:38:04.144Z,1019.75
2019-01-11T07:39:13.587Z,1019.78
2019-01-11T07:40:23.008Z,1019.77
2019-01-11T07:41:31.952Z,1019.76
2019-01-11T07:42:40.888Z,1019.78
2019-01-11T07:43:50.580Z,1019.79
2019-01-11T07:44:59.772Z,1019.79
2019-01-11T07:46:08.981Z,1019.8
2019-01-11T07:47:18.413Z,1019.81
2019-01-11T07:48:28.919Z,1019.83
2019-01-11T07:49:38.346Z,1019.81
2019-01-11T07:50:49.346Z,1019.82
2019-01-11T07:51:58.914Z,1019.78
2019-01-11T07:53:08.092Z,1019.81
2019-01-11T07:54:17.034Z,1019.84
2019-01-11T07:55:25.720Z,1019.83
2019-01-11T07:56:35.418Z,1019.82
2019-01-11T07:57:44.847Z,1019.82
2019-01-11T07:58:54.550Z,1019.8
2019-01-11T08:00:03.507Z,1019.8
2019-01-11T08:01:13.185Z,1019.82
2019-01-11T08:02:22.647Z,1019.78
2019-01-11T08:03:32.350Z,1019.78
2019-01-11T08:04:42.020Z,1019.74
2019-01-11T08:05:51.230Z,1019.77
2019-01-11T08:07:00.941Z,1019.74
2019-01-11T08:08:10.366Z,1019.74
2019-01-11T08:09:20.049Z,1019.7
2019-01-11T08:10:29.722Z,1019.73
2019-01-11T08:11:39.417Z,1019.68
2019-01-11T08:12:49.145Z,1019.67
2019-01-11T08:13:58.576Z,1019.68
2019-01-11T08:15:08.002Z,1019.71
2019-01-11T08:16:17.183Z,1019.73
2019-01-11T08:17:26.374Z,1019.69
2019-01-11T08:18:35.333Z,1019.72
2019-01-11T08:19:44.759Z,1019.7
2019-01-11T08:20:56.272Z,1019.73
2019-01-11T08:22:05.897Z,1019.76
2019-01-11T08:23:15.356Z,1019.79
2019-01-11T08:24:24.822Z,1019.76
2019-01-11T08:25:34.759Z,1019.78
2019-01-11T08:26:43.690Z,1019.76
2019-01-11T08:27:53.121Z,1019.8
2019-01-11T08:29:02.301Z,1019.77
2019-01-11T08:30:11.738Z,1019.77
2019-01-11T08:31:21.535Z,1019.76
2019-01-11T08:32:37.389Z,1019.73
2019-01-11T08:33:46.823Z,1019.71
2019-01-11T08:34:56.524Z,1019.69
2019-01-11T08:36:05.952Z,1019.69
2019-01-11T08:37:15.391Z,1019.68
2019-01-11T08:38:24.863Z,1019.73
2019-01-11T08:39:34.791Z,1019.72
2019-01-11T08:40:44.277Z,1019.75
2019-01-11T08:41:53.725Z,1019.77
2019-01-11T08:43:02.665Z,1019.76
2019-01-11T08:44:11.601Z,1019.71
2019-01-11T08:45:20.780Z,1019.73
2019-01-11T08:46:30.506Z,1019.74
2019-01-11T08:47:39.723Z,1019.73
2019-01-11T08:48:49.167Z,1019.74
2019-01-11T08:49:58.602Z,1019.77
2019-01-11T08:51:08.104Z,1019.73
2019-01-11T08:52:17.306Z,1019.75
2019-01-11T08:53:27.004Z,1019.73
2019-01-11T08:54:36.433Z,1019.74
2019-01-11T08:55:45.873Z,1019.75
2019-01-11T08:56:55.327Z,1019.75
2019-01-11T08:58:04.540Z,1019.8
2019-01-11T08:59:13.975Z,1019.78
2019-01-11T09:00:23.404Z,1019.75
2019-01-11T09:01:32.830Z,1019.76
2019-01-11T09:02:41.783Z,1019.73
2019-01-11T09:03:50.712Z,1019.75
2019-01-11T09:04:59.911Z,1019.69
2019-01-11T09:06:09.129Z,1019.65
2019-01-11T09:07:18.083Z,1019.67
2019-01-11T09:08:28.085Z,1019.66
2019-01-11T09:09:37.534Z,1019.63
2019-01-11T09:10:46.702Z,1019.63
2019-01-11T09:11:55.915Z,1019.64
2019-01-11T09:13:05.092Z,1019.63
2019-01-11T09:14:14.283Z,1019.65
2019-01-11T09:15:23.503Z,1019.67
2019-01-11T09:16:32.472Z,1019.63
2019-01-11T09:17:41.924Z,1019.66
2019-01-11T09:18:51.355Z,1019.68
2019-01-11T09:20:00.558Z,1019.72
2019-01-11T09:21:11.302Z,1019.76
2019-01-11T09:22:20.848Z,1019.78
2019-01-11T09:23:30.031Z,1019.8
2019-01-11T09:24:39.723Z,1019.78
2019-01-11T09:25:48.930Z,1019.76
2019-01-11T09:26:57.890Z,1019.77
2019-01-11T09:28:07.592Z,1019.78
2019-01-11T09:29:17.044Z,1019.78
2019-01-11T09:30:26.236Z,1019.78
2019-01-11T09:31:35.431Z,1019.8
2019-01-11T09:32:44.860Z,1019.79
2019-01-11T09:33:54.085Z,1019.77
2019-01-11T09:35:03.534Z,1019.74
2019-01-11T09:36:12.982Z,1019.68
2019-01-11T09:37:22.456Z,1019.66
2019-01-11T09:38:31.899Z,1019.62
2019-01-11T09:39:41.338Z,1019.62
2019-01-11T09:40:50.799Z,1019.68
2019-01-11T09:42:00.247Z,1019.71
2019-01-11T09:43:09.693Z,1019.75
2019-01-11T09:44:19.386Z,1019.75
2019-01-11T09:45:29.066Z,1019.71
2019-01-11T09:46:38.262Z,1019.75
2019-01-11T09:47:47.567Z,1019.78
2019-01-11T09:48:57.279Z,1019.74
2019-01-11T09:50:06.474Z,1019.74
2019-01-11T09:51:15.735Z,1019.74
2019-01-11T09:52:24.865Z,1019.71
2019-01-11T09:53:33.554Z,1019.77
2019-01-11T09:54:42.516Z,1019.76
2019-01-11T09:55:53.155Z,1019.77
2019-01-11T09:57:02.606Z,1019.73
2019-01-11T09:58:12.286Z,1019.75
2019-01-11T09:59:21.464Z,1019.75
2019-01-11T10:00:35.566Z,1019.78
2019-01-11T10:01:45.714Z,1019.73
2019-01-11T10:02:55.639Z,1019.74
2019-01-11T10:04:04.840Z,1019.78
2019-01-11T10:05:14.568Z,1019.76
2019-01-11T10:06:23.504Z,1019.78
2019-01-11T10:07:32.944Z,1019.79
2019-01-11T10:08:41.897Z,1019.76
2019-01-11T10:09:51.075Z,1019.77
2019-01-11T10:11:00.788Z,1019.74
2019-01-11T10:12:10.468Z,1019.77
2019-01-11T10:13:19.383Z,1019.7
2019-01-11T10:14:28.325Z,1019.75
2019-01-11T10:15:37.498Z,1019.73
2019-01-11T10:16:46.699Z,1019.73
2019-01-11T10:17:55.890Z,1019.72
2019-01-11T10:19:05.080Z,1019.71
2019-01-11T10:20:14.530Z,1019.73
2019-01-11T10:21:24.118Z,1019.72
2019-01-11T10:22:33.585Z,1019.74
2019-01-11T10:23:43.034Z,1019.72
2019-01-11T10:24:52.215Z,1019.7
2019-01-11T10:26:01.685Z,1019.72
2019-01-11T10:27:11.385Z,1019.69
2019-01-11T10:28:21.067Z,1019.73
2019-01-11T10:29:30.324Z,1019.7
2019-01-11T10:30:39.518Z,1019.67
2019-01-11T10:31:49.208Z,1019.65
2019-01-11T10:32:58.640Z,1019.67
2019-01-11T10:34:08.082Z,1019.69
2019-01-11T10:35:17.040Z,1019.64
2019-01-11T10:36:26.223Z,1019.71
2019-01-11T10:37:35.895Z,1019.68
2019-01-11T10:38:44.828Z,1019.63
2019-01-11T10:39:54.284Z,1019.6
2019-01-11T10:41:03.464Z,1019.61
2019-01-11T10:42:12.404Z,1019.55
2019-01-11T10:43:21.358Z,1019.54
2019-01-11T10:44:30.279Z,1019.55
2019-01-11T10:45:39.461Z,1019.49
2019-01-11T10:46:49.092Z,1019.54
2019-01-11T10:47:59.113Z,1019.48
2019-01-11T10:49:08.559Z,1019.51
2019-01-11T10:50:18.033Z,1019.5
2019-01-11T10:51:28.178Z,1019.55
2019-01-11T10:52:37.476Z,1019.57
2019-01-11T10:53:46.434Z,1019.52
2019-01-11T10:54:55.911Z,1019.53
2019-01-11T10:56:05.349Z,1019.51
2019-01-11T10:57:14.540Z,1019.56
2019-01-11T10:58:24.459Z,1019.52
2019-01-11T10:59:33.897Z,1019.54
2019-01-11T11:00:43.323Z,1019.49
2019-01-11T11:01:52.772Z,1019.48
2019-01-11T11:03:01.972Z,1019.47
2019-01-11T11:04:10.667Z,1019.48
2019-01-11T11:05:19.647Z,1019.48
2019-01-11T11:06:29.102Z,1019.43
2019-01-11T11:07:38.548Z,1019.42
2019-01-11T11:08:47.789Z,1019.38
2019-01-11T11:09:57.239Z,1019.41
2019-01-11T11:11:06.433Z,1019.39
2019-01-11T11:12:19.309Z,1019.34
2019-01-11T11:13:28.494Z,1019.32
2019-01-11T11:14:38.185Z,1019.3
2019-01-11T11:15:47.134Z,1019.33
2019-01-11T11:16:56.056Z,1019.29
2019-01-11T11:18:05.241Z,1019.34
2019-01-11T11:19:14.948Z,1019.35
2019-01-11T11:20:24.140Z,1019.36
2019-01-11T11:21:34.730Z,1019.35
2019-01-11T11:22:44.580Z,1019.37
2019-01-11T11:23:54.213Z,1019.35
2019-01-11T11:25:03.177Z,1019.32
2019-01-11T11:26:12.624Z,1019.3
2019-01-11T11:27:22.055Z,1019.27
2019-01-11T11:28:30.994Z,1019.25
2019-01-11T11:29:40.173Z,1019.34
2019-01-11T11:30:50.968Z,1019.32
2019-01-11T11:32:01.863Z,1019.27
2019-01-11T11:33:11.071Z,1019.3
2019-01-11T11:34:20.263Z,1019.31
2019-01-11T11:35:29.449Z,1019.31
2019-01-11T11:36:38.127Z,1019.3
2019-01-11T11:37:47.116Z,1019.32
2019-01-11T11:38:56.057Z,1019.3
2019-01-11T11:40:05.233Z,1019.29
2019-01-11T11:41:14.909Z,1019.28
2019-01-11T11:42:24.081Z,1019.28
2019-01-11T11:43:33.759Z,1019.19
2019-01-11T11:44:42.926Z,1019.17
2019-01-11T11:45:52.358Z,1019.16
2019-01-11T11:47:01.557Z,1019.13
2019-01-11T11:48:10.976Z,1019.16
2019-01-11T11:49:20.648Z,1019.15
2019-01-11T11:50:30.337Z,1019.17
2019-01-11T11:51:41.339Z,1019.17
2019-01-11T11:52:51.016Z,1019.19
2019-01-11T11:54:00.191Z,1019.19
2019-01-11T11:55:09.139Z,1019.15
2019-01-11T11:56:18.318Z,1019.16
2019-01-11T11:57:28.249Z,1019.17
2019-01-11T11:58:37.223Z,1019.16
2019-01-11T11:59:46.416Z,1019.18
2019-01-11T12:00:55.612Z,1019.19
2019-01-11T12:02:04.562Z,1019.2
2019-01-11T12:03:19.563Z,1019.19
2019-01-11T12:04:29.022Z,1019.17
2019-01-11T12:05:38.486Z,1019.13
2019-01-11T12:06:47.929Z,1019.12
2019-01-11T12:07:57.379Z,1019.07
2019-01-11T12:09:06.825Z,1019.03
2019-01-11T12:10:16.249Z,1018.97
2019-01-11T12:11:25.923Z,1018.93
2019-01-11T12:12:35.110Z,1018.89
2019-01-11T12:13:44.037Z,1018.89
2019-01-11T12:14:52.977Z,1018.85
2019-01-11T12:16:02.172Z,1018.94
2019-01-11T12:17:11.885Z,1018.9
2019-01-11T12:18:20.828Z,1018.89
2019-01-11T12:19:29.769Z,1018.87
2019-01-11T12:20:39.204Z,1018.91
2019-01-11T12:21:48.631Z,1018.89
2019-01-11T12:23:04.163Z,1018.88
2019-01-11T12:24:13.608Z,1018.86
2019-01-11T12:25:23.045Z,1018.86
2019-01-11T12:26:32.240Z,1018.9
2019-01-11T12:27:41.185Z,1018.88
2019-01-11T12:28:50.870Z,1018.9
2019-01-11T12:30:00.326Z,1018.84
2019-01-11T12:31:09.533Z,1018.83
2019-01-11T12:32:19.592Z,1018.78
2019-01-11T12:33:29.201Z,1018.78
2019-01-11T12:34:38.650Z,1018.73
2019-01-11T12:35:47.868Z,1018.7
2019-01-11T12:36:57.557Z,1018.71
2019-01-11T12:38:13.504Z,1018.7
2019-01-11T12:39:22.894Z,1018.72
2019-01-11T12:40:32.341Z,1018.69
2019-01-11T12:41:42.045Z,1018.67
2019-01-11T12:42:51.236Z,1018.63
2019-01-11T12:44:00.429Z,1018.64
2019-01-11T12:45:09.866Z,1018.59
2019-01-11T12:46:19.571Z,1018.62
2019-01-11T12:47:29.250Z,1018.58
2019-01-11T12:48:38.442Z,1018.59
2019-01-11T12:49:47.389Z,1018.63
2019-01-11T12:50:56.573Z,1018.56
2019-01-11T12:52:05.751Z,1018.59
2019-01-11T12:53:14.933Z,1018.5
2019-01-11T12:54:23.873Z,1018.52
2019-01-11T12:55:33.051Z,1018.48
2019-01-11T12:56:42.268Z,1018.51
2019-01-11T12:57:51.444Z,1018.44
2019-01-11T12:59:00.875Z,1018.49
2019-01-11T13:00:10.078Z,1018.47
2019-01-11T13:01:19.505Z,1018.47
2019-01-11T13:02:28.935Z,1018.46
2019-01-11T13:03:38.132Z,1018.46
2019-01-11T13:04:47.805Z,1018.43
2019-01-11T13:05:57.234Z,1018.47
2019-01-11T13:07:06.177Z,1018.42
2019-01-11T13:08:15.390Z,1018.46
2019-01-11T13:09:24.814Z,1018.45
2019-01-11T13:10:34.269Z,1018.42
2019-01-11T13:11:43.201Z,1018.38
2019-01-11T13:12:52.379Z,1018.38
2019-01-11T13:14:01.800Z,1018.35
2019-01-11T13:15:11.227Z,1018.38
2019-01-11T13:16:20.411Z,1018.39
2019-01-11T13:17:29.343Z,1018.36
2019-01-11T13:18:38.264Z,1018.35
2019-01-11T13:19:47.455Z,1018.37
2019-01-11T13:20:56.646Z,1018.37
2019-01-11T13:22:06.358Z,1018.31
2019-01-11T13:23:15.810Z,1018.32
2019-01-11T13:24:25.245Z,1018.27
2019-01-11T13:25:34.426Z,1018.27
2019-01-11T13:26:44.354Z,1018.26
2019-01-11T13:27:53.776Z,1018.28
2019-01-11T13:29:02.720Z,1018.27
2019-01-11T13:30:12.171Z,1018.26
2019-01-11T13:31:21.345Z,1018.29
2019-01-11T13:32:30.532Z,1018.28
2019-01-11T13:33:39.711Z,1018.3
2019-01-11T13:34:49.139Z,1018.26
2019-01-11T13:35:58.570Z,1018.26
2019-01-11T13:37:07.998Z,1018.26
2019-01-11T13:38:16.927Z,1018.22
2019-01-11T13:39:26.342Z,1018.26
2019-01-11T13:40:35.023Z,1018.21
2019-01-11T13:41:44.199Z,1018.26
2019-01-11T13:42:53.414Z,1018.22
2019-01-11T13:44:03.110Z,1018.21
2019-01-11T13:45:12.289Z,1018.19
2019-01-11T13:46:22.996Z,1018.17
2019-01-11T13:47:33.176Z,1018.21
2019-01-11T13:48:42.783Z,1018.17
2019-01-11T13:49:51.980Z,1018.18
2019-01-11T13:51:01.421Z,1018.15
2019-01-11T13:52:10.865Z,1018.15
2019-01-11T13:53:20.557Z,1018.13
2019-01-11T13:54:29.987Z,1018.12
2019-01-11T13:55:39.429Z,1018.12
2019-01-11T13:56:48.358Z,1018.16
2019-01-11T13:57:58.044Z,1018.15
2019-01-11T13:59:07.736Z,1018.14
2019-01-11T14:00:16.657Z,1018.14
2019-01-11T14:01:25.586Z,1018.11
2019-01-11T14:02:35.276Z,1018.13
2019-01-11T14:03:44.717Z,1018.1